sensor_id;sensor_type;location;lat;lon;timestamp;pressure;altitude;pressure_sealevel;temperature;humidity
68226;BME280;55045;49.410;11.030;2023-05-23T00:01:47;97628.25;;;16.72;100.00
68226;BME280;55045;49.410;11.030;2023-05-23T00:04:51;97637.88;;;17.04;100.00
68226;BME280;55045;49.410;11.030;2023-05-23T00:08:00;97628.91;;;16.85;100.00
68226;BME280;55045;49.410;11.030;2023-05-23T00:11:03;97633.34;;;17.06;100.00
68226;BME280;55045;49.410;11.030;2023-05-23T00:14:08;97638.34;;;17.09;100.00
68226;BME280;55045;49.410;11.030;2023-05-23T00:17:12;97640.44;;;17.15;100.00
68226;BME280;55045;49.410;11.030;2023-05-23T00:20:15;97637.78;;;17.26;100.00
68226;BME280;55045;49.410;11.030;2023-05-23T00:23:20;97636.94;;;17.25;100.00
68226;BME280;55045;49.410;11.030;2023-05-23T00:26:25;97646.44;;;17.17;100.00
68226;BME280;55045;49.410;11.030;2023-05-23T00:29:30;97616.28;;;16.90;100.00
68226;BME280;55045;49.410;11.030;2023-05-23T00:32:34;97643.66;;;16.97;100.00
68226;BME280;55045;49.410;11.030;2023-05-23T00:35:37;97644.22;;;17.01;100.00
68226;BME280;55045;49.410;11.030;2023-05-23T00:38:42;97639.47;;;16.95;100.00
68226;BME280;55045;49.410;11.030;2023-05-23T00:41:47;97647.22;;;16.96;100.00
68226;BME280;55045;49.410;11.030;2023-05-23T00:44:53;97646.31;;;16.86;100.00
68226;BME280;55045;49.410;11.030;2023-05-23T00:47:57;97658.84;;;17.04;100.00
68226;BME280;55045;49.410;11.030;2023-05-23T00:51:01;97650.63;;;16.76;100.00
68226;BME280;55045;49.410;11.030;2023-05-23T00:54:06;97656.06;;;16.84;100.00
68226;BME280;55045;49.410;11.030;2023-05-23T00:57:09;97656.44;;;16.80;100.00
68226;BME280;55045;49.410;11.030;2023-05-23T01:00:13;97647.97;;;16.65;100.00
68226;BME280;55045;49.410;11.030;2023-05-23T01:03:17;97657.88;;;16.73;100.00
68226;BME280;55045;49.410;11.030;2023-05-23T01:06:21;97658.63;;;16.41;100.00
68226;BME280;55045;49.410;11.030;2023-05-23T01:09:27;97662.28;;;16.61;100.00
68226;BME280;55045;49.410;11.030;2023-05-23T01:12:40;97652.06;;;16.58;100.00
68226;BME280;55045;49.410;11.030;2023-05-23T01:15:53;97656.22;;;16.60;100.00
68226;BME280;55045;49.410;11.030;2023-05-23T01:19:04;97656.94;;;16.51;100.00
68226;BME280;55045;49.410;11.030;2023-05-23T01:22:20;97655.53;;;16.47;100.00
68226;BME280;55045;49.410;11.030;2023-05-23T01:25:47;97653.97;;;16.45;100.00
68226;BME280;55045;49.410;11.030;2023-05-23T01:29:06;97648.53;;;16.36;100.00
68226;BME280;55045;49.410;11.030;2023-05-23T01:32:13;97655.66;;;16.34;100.00
68226;BME280;55045;49.410;11.030;2023-05-23T01:35:22;97647.72;;;16.13;100.00
68226;BME280;55045;49.410;11.030;2023-05-23T01:38:28;97650.81;;;15.96;100.00
68226;BME280;55045;49.410;11.030;2023-05-23T01:41:31;97651.53;;;16.09;100.00
68226;BME280;55045;49.410;11.030;2023-05-23T01:44:37;97653.06;;;16.12;100.00
68226;BME280;55045;49.410;11.030;2023-05-23T01:47:42;97653.31;;;16.20;100.00
68226;BME280;55045;49.410;11.030;2023-05-23T01:50:46;97651.88;;;16.16;100.00
68226;BME280;55045;49.410;11.030;2023-05-23T01:53:50;97657.44;;;16.34;100.00
68226;BME280;55045;49.410;11.030;2023-05-23T01:56:53;97655.53;;;16.47;100.00
68226;BME280;55045;49.410;11.030;2023-05-23T01:59:58;97645.91;;;16.48;100.00
68226;BME280;55045;49.410;11.030;2023-05-23T02:03:02;97646.03;;;16.24;100.00
68226;BME280;55045;49.410;11.030;2023-05-23T02:06:06;97658.66;;;16.30;100.00
68226;BME280;55045;49.410;11.030;2023-05-23T02:09:09;97657.34;;;16.24;100.00
68226;BME280;55045;49.410;11.030;2023-05-23T02:12:13;97659.03;;;16.25;100.00
68226;BME280;55045;49.410;11.030;2023-05-23T02:15:17;97664.47;;;16.33;100.00
68226;BME280;55045;49.410;11.030;2023-05-23T02:18:21;97653.66;;;16.27;100.00
68226;BME280;55045;49.410;11.030;2023-05-23T02:21:28;97656.16;;;16.17;100.00
68226;BME280;55045;49.410;11.030;2023-05-23T02:24:37;97657.59;;;16.10;100.00
68226;BME280;55045;49.410;11.030;2023-05-23T02:27:40;97658.66;;;16.07;100.00
68226;BME280;55045;49.410;11.030;2023-05-23T02:30:45;97663.06;;;16.18;100.00
68226;BME280;55045;49.410;11.030;2023-05-23T02:33:48;97661.88;;;15.89;100.00
68226;BME280;55045;49.410;11.030;2023-05-23T02:36:52;97663.06;;;15.84;100.00
68226;BME280;55045;49.410;11.030;2023-05-23T02:39:55;97670.53;;;15.78;100.00
68226;BME280;55045;49.410;11.030;2023-05-23T02:42:59;97670.66;;;15.99;100.00
68226;BME280;55045;49.410;11.030;2023-05-23T02:46:03;97666.84;;;15.92;100.00
68226;BME280;55045;49.410;11.030;2023-05-23T02:49:07;97679.47;;;15.98;100.00
68226;BME280;55045;49.410;11.030;2023-05-23T02:52:10;97681.59;;;15.93;100.00
68226;BME280;55045;49.410;11.030;2023-05-23T02:55:13;97690.50;;;15.90;100.00
68226;BME280;55045;49.410;11.030;2023-05-23T02:58:20;97685.88;;;15.82;100.00
68226;BME280;55045;49.410;11.030;2023-05-23T03:01:26;97688.47;;;15.82;100.00
68226;BME280;55045;49.410;11.030;2023-05-23T03:04:30;97691.22;;;15.81;100.00
68226;BME280;55045;49.410;11.030;2023-05-23T03:07:33;97693.25;;;15.77;100.00
68226;BME280;55045;49.410;11.030;2023-05-23T03:10:37;97701.31;;;15.74;100.00
68226;BME280;55045;49.410;11.030;2023-05-23T03:13:40;97697.75;;;15.75;100.00
68226;BME280;55045;49.410;11.030;2023-05-23T03:16:45;97705.88;;;15.60;100.00
68226;BME280;55045;49.410;11.030;2023-05-23T03:19:48;97714.41;;;15.50;100.00
68226;BME280;55045;49.410;11.030;2023-05-23T03:22:52;97710.69;;;15.42;100.00
68226;BME280;55045;49.410;11.030;2023-05-23T03:25:57;97714.03;;;15.44;100.00
68226;BME280;55045;49.410;11.030;2023-05-23T03:29:08;97711.53;;;15.42;100.00
68226;BME280;55045;49.410;11.030;2023-05-23T03:34:31;97712.84;;;15.48;100.00
68226;BME280;55045;49.410;11.030;2023-05-23T03:37:35;97707.88;;;15.45;100.00
68226;BME280;55045;49.410;11.030;2023-05-23T03:40:38;97719.84;;;15.36;100.00
68226;BME280;55045;49.410;11.030;2023-05-23T03:43:41;97728.94;;;15.31;100.00
68226;BME280;55045;49.410;11.030;2023-05-23T03:46:44;97738.91;;;15.25;100.00
68226;BME280;55045;49.410;11.030;2023-05-23T03:49:50;97743.22;;;15.38;100.00
68226;BME280;55045;49.410;11.030;2023-05-23T03:52:54;97734.59;;;15.13;100.00
68226;BME280;55045;49.410;11.030;2023-05-23T03:55:58;97739.91;;;15.36;100.00
68226;BME280;55045;49.410;11.030;2023-05-23T03:59:08;97748.19;;;15.30;100.00
68226;BME280;55045;49.410;11.030;2023-05-23T04:02:11;97745.28;;;15.21;100.00
68226;BME280;55045;49.410;11.030;2023-05-23T04:05:16;97749.53;;;15.35;100.00
68226;BME280;55045;49.410;11.030;2023-05-23T04:08:20;97738.25;;;15.35;100.00
68226;BME280;55045;49.410;11.030;2023-05-23T04:11:25;97738.84;;;15.38;100.00
68226;BME280;55045;49.410;11.030;2023-05-23T04:14:29;97738.69;;;15.28;100.00
68226;BME280;55045;49.410;11.030;2023-05-23T04:17:34;97743.38;;;15.47;100.00
68226;BME280;55045;49.410;11.030;2023-05-23T04:20:41;97745.66;;;15.52;100.00
68226;BME280;55045;49.410;11.030;2023-05-23T04:23:45;97755.22;;;15.40;100.00
68226;BME280;55045;49.410;11.030;2023-05-23T04:26:48;97754.56;;;15.49;100.00
68226;BME280;55045;49.410;11.030;2023-05-23T04:29:51;97755.25;;;15.51;100.00
68226;BME280;55045;49.410;11.030;2023-05-23T04:32:55;97762.91;;;15.54;100.00
68226;BME280;55045;49.410;11.030;2023-05-23T04:36:04;97757.13;;;15.62;100.00
68226;BME280;55045;49.410;11.030;2023-05-23T04:39:12;97763.13;;;15.75;100.00
68226;BME280;55045;49.410;11.030;2023-05-23T04:42:30;97772.59;;;15.65;100.00
68226;BME280;55045;49.410;11.030;2023-05-23T04:45:50;97752.22;;;15.57;100.00
68226;BME280;55045;49.410;11.030;2023-05-23T04:49:25;97771.22;;;15.60;100.00
68226;BME280;55045;49.410;11.030;2023-05-23T04:52:30;97781.59;;;15.61;100.00
68226;BME280;55045;49.410;11.030;2023-05-23T04:55:35;97786.72;;;15.63;100.00
68226;BME280;55045;49.410;11.030;2023-05-23T04:58:40;97789.88;;;15.55;100.00
68226;BME280;55045;49.410;11.030;2023-05-23T05:01:46;97788.69;;;15.59;100.00
68226;BME280;55045;49.410;11.030;2023-05-23T05:04:49;97787.03;;;15.93;100.00
68226;BME280;55045;49.410;11.030;2023-05-23T05:07:54;97785.38;;;15.92;100.00
68226;BME280;55045;49.410;11.030;2023-05-23T05:10:58;97791.47;;;16.04;100.00
68226;BME280;55045;49.410;11.030;2023-05-23T05:14:08;97788.75;;;16.05;100.00
68226;BME280;55045;49.410;11.030;2023-05-23T05:17:12;97794.44;;;16.10;100.00
68226;BME280;55045;49.410;11.030;2023-05-23T05:20:34;97800.09;;;16.28;100.00
68226;BME280;55045;49.410;11.030;2023-05-23T05:23:39;97800.66;;;16.21;100.00
68226;BME280;55045;49.410;11.030;2023-05-23T05:26:43;97799.13;;;16.52;100.00
68226;BME280;55045;49.410;11.030;2023-05-23T05:29:46;97795.81;;;16.61;100.00
68226;BME280;55045;49.410;11.030;2023-05-23T05:32:51;97805.34;;;16.73;100.00
68226;BME280;55045;49.410;11.030;2023-05-23T05:35:55;97805.84;;;16.78;100.00
68226;BME280;55045;49.410;11.030;2023-05-23T05:39:00;97798.22;;;16.75;100.00
68226;BME280;55045;49.410;11.030;2023-05-23T05:42:04;97802.84;;;16.72;100.00
68226;BME280;55045;49.410;11.030;2023-05-23T05:45:08;97801.19;;;16.82;100.00
68226;BME280;55045;49.410;11.030;2023-05-23T05:48:13;97799.88;;;16.87;100.00
68226;BME280;55045;49.410;11.030;2023-05-23T05:51:17;97801.31;;;16.91;100.00
68226;BME280;55045;49.410;11.030;2023-05-23T05:54:22;97799.13;;;17.19;100.00
68226;BME280;55045;49.410;11.030;2023-05-23T05:57:25;97796.88;;;17.46;100.00
68226;BME280;55045;49.410;11.030;2023-05-23T06:00:29;97797.03;;;17.66;100.00
68226;BME280;55045;49.410;11.030;2023-05-23T06:03:32;97785.25;;;17.71;100.00
68226;BME280;55045;49.410;11.030;2023-05-23T06:06:36;97797.00;;;17.88;100.00
68226;BME280;55045;49.410;11.030;2023-05-23T06:09:41;97791.91;;;17.75;100.00
68226;BME280;55045;49.410;11.030;2023-05-23T06:12:45;97801.44;;;17.97;100.00
68226;BME280;55045;49.410;11.030;2023-05-23T06:15:49;97797.34;;;18.04;100.00
68226;BME280;55045;49.410;11.030;2023-05-23T06:18:53;97802.03;;;18.22;100.00
68226;BME280;55045;49.410;11.030;2023-05-23T06:21:58;97792.94;;;18.56;100.00
68226;BME280;55045;49.410;11.030;2023-05-23T06:25:03;97799.66;;;18.49;100.00
68226;BME280;55045;49.410;11.030;2023-05-23T06:28:07;97804.06;;;18.18;100.00
68226;BME280;55045;49.410;11.030;2023-05-23T06:31:10;97800.34;;;18.41;100.00
68226;BME280;55045;49.410;11.030;2023-05-23T06:34:13;97808.69;;;18.56;100.00
68226;BME280;55045;49.410;11.030;2023-05-23T06:37:16;97807.00;;;18.46;100.00
68226;BME280;55045;49.410;11.030;2023-05-23T06:40:21;97802.94;;;18.93;100.00
68226;BME280;55045;49.410;11.030;2023-05-23T06:43:25;97813.69;;;18.90;100.00
68226;BME280;55045;49.410;11.030;2023-05-23T06:46:37;97805.44;;;18.12;100.00
68226;BME280;55045;49.410;11.030;2023-05-23T06:49:41;97807.75;;;18.36;100.00
68226;BME280;55045;49.410;11.030;2023-05-23T06:52:44;97818.06;;;18.49;100.00
68226;BME280;55045;49.410;11.030;2023-05-23T06:55:50;97814.34;;;18.52;100.00
68226;BME280;55045;49.410;11.030;2023-05-23T06:58:55;97815.06;;;18.54;100.00
68226;BME280;55045;49.410;11.030;2023-05-23T07:01:59;97820.97;;;18.25;100.00
68226;BME280;55045;49.410;11.030;2023-05-23T07:05:03;97823.09;;;18.10;100.00
68226;BME280;55045;49.410;11.030;2023-05-23T07:08:27;97826.75;;;18.19;100.00
68226;BME280;55045;49.410;11.030;2023-05-23T07:11:35;97828.84;;;18.04;100.00
68226;BME280;55045;49.410;11.030;2023-05-23T07:14:40;97829.88;;;18.13;100.00
68226;BME280;55045;49.410;11.030;2023-05-23T07:17:44;97825.47;;;18.13;100.00
68226;BME280;55045;49.410;11.030;2023-05-23T07:20:48;97827.75;;;17.86;100.00
68226;BME280;55045;49.410;11.030;2023-05-23T07:23:53;97832.63;;;18.11;100.00
68226;BME280;55045;49.410;11.030;2023-05-23T07:26:58;97830.13;;;17.89;100.00
68226;BME280;55045;49.410;11.030;2023-05-23T07:30:03;97836.16;;;17.69;100.00
68226;BME280;55045;49.410;11.030;2023-05-23T07:33:10;97838.50;;;18.04;100.00
68226;BME280;55045;49.410;11.030;2023-05-23T07:36:14;97843.69;;;17.94;100.00
68226;BME280;55045;49.410;11.030;2023-05-23T07:39:17;97843.19;;;17.68;100.00
68226;BME280;55045;49.410;11.030;2023-05-23T07:42:25;97841.38;;;17.80;100.00
68226;BME280;55045;49.410;11.030;2023-05-23T07:45:29;97850.13;;;17.69;100.00
68226;BME280;55045;49.410;11.030;2023-05-23T07:48:34;97850.69;;;17.73;100.00
68226;BME280;55045;49.410;11.030;2023-05-23T07:51:38;97850.56;;;17.74;100.00
68226;BME280;55045;49.410;11.030;2023-05-23T07:54:44;97848.34;;;17.59;100.00
68226;BME280;55045;49.410;11.030;2023-05-23T07:57:49;97860.09;;;17.75;100.00
68226;BME280;55045;49.410;11.030;2023-05-23T08:00:54;97859.53;;;17.61;100.00
68226;BME280;55045;49.410;11.030;2023-05-23T08:04:18;97869.72;;;17.86;100.00
68226;BME280;55045;49.410;11.030;2023-05-23T08:07:25;97870.53;;;17.87;100.00
68226;BME280;55045;49.410;11.030;2023-05-23T08:10:33;97871.75;;;18.14;100.00
68226;BME280;55045;49.410;11.030;2023-05-23T08:13:44;97867.25;;;18.47;100.00
68226;BME280;55045;49.410;11.030;2023-05-23T08:17:06;97874.16;;;18.06;100.00
68226;BME280;55045;49.410;11.030;2023-05-23T08:20:11;97867.31;;;17.94;100.00
68226;BME280;55045;49.410;11.030;2023-05-23T08:23:14;97860.03;;;19.21;100.00
68226;BME280;55045;49.410;11.030;2023-05-23T08:26:19;97799.28;;;19.24;100.00
68226;BME280;55045;49.410;11.030;2023-05-23T08:29:27;97849.16;;;20.23;100.00
68226;BME280;55045;49.410;11.030;2023-05-23T08:32:30;97854.41;;;19.55;100.00
68226;BME280;55045;49.410;11.030;2023-05-23T08:35:34;97873.09;;;19.02;100.00
68226;BME280;55045;49.410;11.030;2023-05-23T08:38:43;97869.28;;;19.25;100.00
68226;BME280;55045;49.410;11.030;2023-05-23T08:41:52;97865.09;;;20.40;100.00
68226;BME280;55045;49.410;11.030;2023-05-23T08:44:57;97872.28;;;19.51;100.00
68226;BME280;55045;49.410;11.030;2023-05-23T08:48:00;97869.94;;;19.58;100.00
68226;BME280;55045;49.410;11.030;2023-05-23T08:51:08;97876.69;;;19.01;100.00
68226;BME280;55045;49.410;11.030;2023-05-23T08:54:12;97884.59;;;18.59;100.00
68226;BME280;55045;49.410;11.030;2023-05-23T08:57:16;97885.50;;;18.69;100.00
68226;BME280;55045;49.410;11.030;2023-05-23T09:00:27;97885.84;;;18.76;100.00
68226;BME280;55045;49.410;11.030;2023-05-23T09:03:31;97881.63;;;19.35;100.00
68226;BME280;55045;49.410;11.030;2023-05-23T09:06:46;97890.03;;;19.59;100.00
68226;BME280;55045;49.410;11.030;2023-05-23T09:09:50;97871.91;;;20.24;100.00
68226;BME280;55045;49.410;11.030;2023-05-23T09:12:53;97875.78;;;20.29;100.00
68226;BME280;55045;49.410;11.030;2023-05-23T09:16:01;97885.91;;;19.85;100.00
68226;BME280;55045;49.410;11.030;2023-05-23T09:19:12;97892.84;;;19.37;100.00
68226;BME280;55045;49.410;11.030;2023-05-23T09:22:23;97896.31;;;18.97;100.00
68226;BME280;55045;49.410;11.030;2023-05-23T09:25:44;97894.81;;;19.44;100.00
68226;BME280;55045;49.410;11.030;2023-05-23T09:28:49;97897.41;;;19.75;100.00
68226;BME280;55045;49.410;11.030;2023-05-23T09:34:31;97897.75;;;20.86;100.00
68226;BME280;55045;49.410;11.030;2023-05-23T09:37:36;97901.28;;;20.29;100.00
68226;BME280;55045;49.410;11.030;2023-05-23T09:40:44;97906.41;;;20.11;100.00
68226;BME280;55045;49.410;11.030;2023-05-23T09:43:51;97915.63;;;19.57;100.00
68226;BME280;55045;49.410;11.030;2023-05-23T09:46:55;97927.97;;;19.26;100.00
68226;BME280;55045;49.410;11.030;2023-05-23T09:50:01;97926.34;;;19.35;100.00
68226;BME280;55045;49.410;11.030;2023-05-23T09:53:05;97922.56;;;19.58;100.00
68226;BME280;55045;49.410;11.030;2023-05-23T09:56:10;97931.53;;;19.15;100.00
68226;BME280;55045;49.410;11.030;2023-05-23T09:59:14;97940.97;;;18.97;100.00
68226;BME280;55045;49.410;11.030;2023-05-23T10:02:47;97936.47;;;19.49;100.00
68226;BME280;55045;49.410;11.030;2023-05-23T10:05:59;97938.59;;;19.55;100.00
68226;BME280;55045;49.410;11.030;2023-05-23T10:09:04;97937.78;;;18.93;100.00
68226;BME280;55045;49.410;11.030;2023-05-23T10:12:43;97940.38;;;19.14;100.00
68226;BME280;55045;49.410;11.030;2023-05-23T10:15:48;97744.69;;;17.96;100.00
68226;BME280;55045;49.410;11.030;2023-05-23T10:18:56;97900.41;;;18.90;100.00
68226;BME280;55045;49.410;11.030;2023-05-23T10:22:06;97937.03;;;18.61;100.00
68226;BME280;55045;49.410;11.030;2023-05-23T10:25:11;97940.94;;;19.18;100.00
68226;BME280;55045;49.410;11.030;2023-05-23T10:28:16;97935.56;;;18.68;100.00
68226;BME280;55045;49.410;11.030;2023-05-23T10:31:19;97944.56;;;19.57;100.00
68226;BME280;55045;49.410;11.030;2023-05-23T10:34:28;97935.72;;;19.58;100.00
68226;BME280;55045;49.410;11.030;2023-05-23T10:37:39;97930.97;;;19.52;100.00
68226;BME280;55045;49.410;11.030;2023-05-23T10:40:52;97941.19;;;20.05;100.00
68226;BME280;55045;49.410;11.030;2023-05-23T10:44:01;97949.50;;;20.29;100.00
68226;BME280;55045;49.410;11.030;2023-05-23T10:47:09;97937.03;;;20.31;100.00
68226;BME280;55045;49.410;11.030;2023-05-23T10:50:16;97952.03;;;19.21;100.00
68226;BME280;55045;49.410;11.030;2023-05-23T10:53:38;97938.34;;;19.27;100.00
68226;BME280;55045;49.410;11.030;2023-05-23T10:56:41;97954.25;;;19.26;100.00
68226;BME280;55045;49.410;11.030;2023-05-23T10:59:45;97944.09;;;18.81;100.00
68226;BME280;55045;49.410;11.030;2023-05-23T11:02:53;97951.38;;;19.69;100.00
68226;BME280;55045;49.410;11.030;2023-05-23T11:05:57;97956.28;;;19.13;100.00
68226;BME280;55045;49.410;11.030;2023-05-23T11:09:08;97962.50;;;19.12;100.00
68226;BME280;55045;49.410;11.030;2023-05-23T11:12:12;97963.06;;;19.96;100.00
68226;BME280;55045;49.410;11.030;2023-05-23T11:15:19;97924.53;;;19.66;100.00
68226;BME280;55045;49.410;11.030;2023-05-23T11:18:23;97956.75;;;20.66;100.00
68226;BME280;55045;49.410;11.030;2023-05-23T11:21:28;97964.16;;;19.83;100.00
68226;BME280;55045;49.410;11.030;2023-05-23T11:24:50;97897.06;;;19.18;100.00
68226;BME280;55045;49.410;11.030;2023-05-23T11:27:54;97973.28;;;19.79;100.00
68226;BME280;55045;49.410;11.030;2023-05-23T11:30:57;97963.34;;;19.12;100.00
68226;BME280;55045;49.410;11.030;2023-05-23T11:34:01;97957.25;;;19.82;100.00
68226;BME280;55045;49.410;11.030;2023-05-23T11:37:04;97962.81;;;20.08;100.00
68226;BME280;55045;49.410;11.030;2023-05-23T11:40:26;97948.50;;;19.72;100.00
68226;BME280;55045;49.410;11.030;2023-05-23T11:43:30;97959.38;;;20.66;97.62
68226;BME280;55045;49.410;11.030;2023-05-23T11:46:33;97962.13;;;20.16;99.62
68226;BME280;55045;49.410;11.030;2023-05-23T11:49:39;97960.63;;;20.23;100.00
68226;BME280;55045;49.410;11.030;2023-05-23T11:52:42;97961.22;;;19.37;100.00
68226;BME280;55045;49.410;11.030;2023-05-23T11:55:49;97955.16;;;19.46;100.00
68226;BME280;55045;49.410;11.030;2023-05-23T11:58:56;97949.53;;;18.68;100.00
68226;BME280;55045;49.410;11.030;2023-05-23T12:02:01;97959.00;;;18.60;100.00
68226;BME280;55045;49.410;11.030;2023-05-23T12:05:09;97949.59;;;18.78;100.00
68226;BME280;55045;49.410;11.030;2023-05-23T12:08:12;97952.31;;;18.56;100.00
68226;BME280;55045;49.410;11.030;2023-05-23T12:11:18;97960.34;;;18.75;100.00
68226;BME280;55045;49.410;11.030;2023-05-23T12:14:21;97959.56;;;18.42;100.00
68226;BME280;55045;49.410;11.030;2023-05-23T12:17:25;97967.22;;;18.34;100.00
68226;BME280;55045;49.410;11.030;2023-05-23T12:20:30;97959.47;;;18.65;100.00
68226;BME280;55045;49.410;11.030;2023-05-23T12:23:35;97963.03;;;18.64;100.00
68226;BME280;55045;49.410;11.030;2023-05-23T12:26:49;97961.50;;;19.03;100.00
68226;BME280;55045;49.410;11.030;2023-05-23T12:30:03;97959.44;;;18.86;100.00
68226;BME280;55045;49.410;11.030;2023-05-23T12:33:07;97959.63;;;19.55;100.00
68226;BME280;55045;49.410;11.030;2023-05-23T12:36:11;97964.97;;;19.34;100.00
68226;BME280;55045;49.410;11.030;2023-05-23T12:39:15;97956.50;;;18.79;100.00
68226;BME280;55045;49.410;11.030;2023-05-23T12:42:20;97958.09;;;19.12;100.00
68226;BME280;55045;49.410;11.030;2023-05-23T12:45:30;97965.78;;;19.04;100.00
68226;BME280;55045;49.410;11.030;2023-05-23T12:48:33;97963.44;;;19.32;100.00
68226;BME280;55045;49.410;11.030;2023-05-23T12:51:36;97967.47;;;18.84;100.00
68226;BME280;55045;49.410;11.030;2023-05-23T12:54:40;97968.16;;;19.07;100.00
68226;BME280;55045;49.410;11.030;2023-05-23T12:57:44;97964.25;;;18.28;100.00
68226;BME280;55045;49.410;11.030;2023-05-23T13:00:50;97969.53;;;18.49;100.00
68226;BME280;55045;49.410;11.030;2023-05-23T13:03:53;97922.06;;;18.20;100.00
68226;BME280;55045;49.410;11.030;2023-05-23T13:06:57;97976.53;;;18.59;100.00
68226;BME280;55045;49.410;11.030;2023-05-23T13:10:00;97973.06;;;18.59;100.00
68226;BME280;55045;49.410;11.030;2023-05-23T13:13:05;97967.91;;;18.68;100.00
68226;BME280;55045;49.410;11.030;2023-05-23T13:16:08;97984.28;;;18.29;100.00
68226;BME280;55045;49.410;11.030;2023-05-23T13:19:12;97979.81;;;18.20;100.00
68226;BME280;55045;49.410;11.030;2023-05-23T13:22:15;97974.97;;;18.68;100.00
68226;BME280;55045;49.410;11.030;2023-05-23T13:25:18;97968.69;;;18.48;100.00
68226;BME280;55045;49.410;11.030;2023-05-23T13:28:24;97975.28;;;18.75;100.00
68226;BME280;55045;49.410;11.030;2023-05-23T13:31:27;97977.91;;;18.75;100.00
68226;BME280;55045;49.410;11.030;2023-05-23T13:34:31;97987.97;;;18.37;100.00
68226;BME280;55045;49.410;11.030;2023-05-23T13:37:38;97985.94;;;18.41;100.00
68226;BME280;55045;49.410;11.030;2023-05-23T13:40:41;97984.72;;;18.45;100.00
68226;BME280;55045;49.410;11.030;2023-05-23T13:43:46;97981.72;;;18.18;100.00
68226;BME280;55045;49.410;11.030;2023-05-23T13:46:49;97989.72;;;18.48;100.00
68226;BME280;55045;49.410;11.030;2023-05-23T13:49:53;97986.34;;;17.82;100.00
68226;BME280;55045;49.410;11.030;2023-05-23T13:52:56;97981.41;;;18.11;100.00
68226;BME280;55045;49.410;11.030;2023-05-23T13:56:00;97991.28;;;18.07;100.00
68226;BME280;55045;49.410;11.030;2023-05-23T13:59:09;97977.34;;;18.39;100.00
68226;BME280;55045;49.410;11.030;2023-05-23T14:02:12;97980.72;;;18.62;100.00
68226;BME280;55045;49.410;11.030;2023-05-23T14:05:16;97985.94;;;18.94;100.00
68226;BME280;55045;49.410;11.030;2023-05-23T14:08:20;97979.25;;;18.90;100.00
68226;BME280;55045;49.410;11.030;2023-05-23T14:11:23;97983.00;;;19.18;100.00
68226;BME280;55045;49.410;11.030;2023-05-23T14:14:28;97975.69;;;19.21;100.00
68226;BME280;55045;49.410;11.030;2023-05-23T14:17:31;97979.00;;;18.93;100.00
68226;BME280;55045;49.410;11.030;2023-05-23T14:20:34;97985.47;;;18.36;100.00
68226;BME280;55045;49.410;11.030;2023-05-23T14:23:38;97989.63;;;18.38;100.00
68226;BME280;55045;49.410;11.030;2023-05-23T14:26:41;97999.56;;;18.35;100.00
68226;BME280;55045;49.410;11.030;2023-05-23T14:29:45;97993.22;;;18.69;100.00
68226;BME280;55045;49.410;11.030;2023-05-23T14:32:49;97991.13;;;18.52;100.00
68226;BME280;55045;49.410;11.030;2023-05-23T14:35:53;97983.47;;;18.28;100.00
68226;BME280;55045;49.410;11.030;2023-05-23T14:38:56;97987.13;;;18.37;100.00
68226;BME280;55045;49.410;11.030;2023-05-23T14:42:00;97995.28;;;18.34;100.00
68226;BME280;55045;49.410;11.030;2023-05-23T14:45:06;97990.63;;;18.26;100.00
68226;BME280;55045;49.410;11.030;2023-05-23T14:48:09;97987.47;;;18.11;100.00
68226;BME280;55045;49.410;11.030;2023-05-23T14:51:13;97981.75;;;18.38;100.00
68226;BME280;55045;49.410;11.030;2023-05-23T14:54:31;97977.63;;;17.93;100.00
68226;BME280;55045;49.410;11.030;2023-05-23T14:57:35;97983.94;;;18.65;100.00
68226;BME280;55045;49.410;11.030;2023-05-23T15:00:40;97980.09;;;18.58;100.00
68226;BME280;55045;49.410;11.030;2023-05-23T15:03:43;97984.59;;;18.47;100.00
68226;BME280;55045;49.410;11.030;2023-05-23T15:06:47;97980.59;;;18.84;100.00
68226;BME280;55045;49.410;11.030;2023-05-23T15:09:51;97975.72;;;18.80;100.00
68226;BME280;55045;49.410;11.030;2023-05-23T15:12:54;97980.16;;;18.47;100.00
68226;BME280;55045;49.410;11.030;2023-05-23T15:16:00;97973.38;;;18.77;100.00
68226;BME280;55045;49.410;11.030;2023-05-23T15:19:04;97970.09;;;18.84;100.00
68226;BME280;55045;49.410;11.030;2023-05-23T15:22:07;97955.13;;;18.43;100.00
68226;BME280;55045;49.410;11.030;2023-05-23T15:25:23;97974.06;;;18.26;100.00
68226;BME280;55045;49.410;11.030;2023-05-23T15:28:47;97969.75;;;18.57;100.00
68226;BME280;55045;49.410;11.030;2023-05-23T15:34:31;97973.16;;;18.68;100.00
68226;BME280;55045;49.410;11.030;2023-05-23T15:37:34;97974.47;;;18.74;100.00
68226;BME280;55045;49.410;11.030;2023-05-23T15:40:37;97988.75;;;18.49;100.00
68226;BME280;55045;49.410;11.030;2023-05-23T15:43:41;97989.47;;;18.51;100.00
68226;BME280;55045;49.410;11.030;2023-05-23T15:46:44;97988.84;;;18.27;100.00
68226;BME280;55045;49.410;11.030;2023-05-23T15:49:49;97999.88;;;18.21;100.00
68226;BME280;55045;49.410;11.030;2023-05-23T15:52:52;98000.44;;;17.59;100.00
68226;BME280;55045;49.410;11.030;2023-05-23T15:55:56;98010.81;;;17.82;100.00
68226;BME280;55045;49.410;11.030;2023-05-23T15:58:59;98009.97;;;17.82;100.00
68226;BME280;55045;49.410;11.030;2023-05-23T16:02:03;98012.22;;;17.53;100.00
68226;BME280;55045;49.410;11.030;2023-05-23T16:05:09;98012.94;;;17.55;100.00
68226;BME280;55045;49.410;11.030;2023-05-23T16:08:12;98009.97;;;17.48;100.00